sensor_id;sensor_type;location;lat;lon;timestamp;pressure;altitude;pressure_sealevel;temperature;humidity
50103;BME280;35993;52.604;10.078;2023-04-29T00:00:09;100545.78;;;11.44;100.00
50103;BME280;35993;52.604;10.078;2023-04-29T00:02:39;100547.38;;;11.52;100.00
50103;BME280;35993;52.604;10.078;2023-04-29T00:05:05;100544.13;;;11.61;100.00
50103;BME280;35993;52.604;10.078;2023-04-29T00:07:31;100545.50;;;11.52;100.00
50103;BME280;35993;52.604;10.078;2023-04-29T00:09:59;100542.03;;;11.45;100.00
50103;BME280;35993;52.604;10.078;2023-04-29T00:12:25;100546.56;;;11.51;100.00
50103;BME280;35993;52.604;10.078;2023-04-29T00:14:51;100546.59;;;11.44;100.00
50103;BME280;35993;52.604;10.078;2023-04-29T00:17:17;100543.31;;;11.42;100.00
50103;BME280;35993;52.604;10.078;2023-04-29T00:19:43;100539.16;;;11.40;100.00
50103;BME280;35993;52.604;10.078;2023-04-29T00:22:08;100544.75;;;11.45;100.00
50103;BME280;35993;52.604;10.078;2023-04-29T00:24:34;100540.34;;;11.44;100.00
50103;BME280;35993;52.604;10.078;2023-04-29T00:27:00;100548.50;;;11.44;100.00
50103;BME280;35993;52.604;10.078;2023-04-29T00:29:27;100549.41;;;11.38;100.00
50103;BME280;35993;52.604;10.078;2023-04-29T00:31:52;100546.25;;;11.41;100.00
50103;BME280;35993;52.604;10.078;2023-04-29T00:34:18;100560.50;;;11.36;100.00
50103;BME280;35993;52.604;10.078;2023-04-29T00:36:44;100554.47;;;11.34;100.00
50103;BME280;35993;52.604;10.078;2023-04-29T00:39:10;100554.84;;;11.38;100.00
50103;BME280;35993;52.604;10.078;2023-04-29T00:41:36;100558.09;;;11.28;100.00
50103;BME280;35993;52.604;10.078;2023-04-29T00:44:02;100559.75;;;11.29;100.00
50103;BME280;35993;52.604;10.078;2023-04-29T00:46:27;100557.88;;;11.29;100.00
50103;BME280;35993;52.604;10.078;2023-04-29T00:48:53;100573.34;;;11.29;100.00
50103;BME280;35993;52.604;10.078;2023-04-29T00:51:18;100568.50;;;11.31;100.00
50103;BME280;35993;52.604;10.078;2023-04-29T00:53:44;100578.19;;;11.27;100.00
50103;BME280;35993;52.604;10.078;2023-04-29T00:56:10;100576.50;;;11.26;100.00
50103;BME280;35993;52.604;10.078;2023-04-29T00:58:36;100578.25;;;11.20;100.00
50103;BME280;35993;52.604;10.078;2023-04-29T01:01:03;100579.69;;;11.23;100.00
50103;BME280;35993;52.604;10.078;2023-04-29T01:03:29;100575.53;;;11.20;100.00
50103;BME280;35993;52.604;10.078;2023-04-29T01:06:29;100584.59;;;11.14;100.00
50103;BME280;35993;52.604;10.078;2023-04-29T01:09:28;100588.19;;;11.08;100.00
50103;BME280;35993;52.604;10.078;2023-04-29T01:12:13;100587.56;;;11.06;100.00
50103;BME280;35993;52.604;10.078;2023-04-29T01:14:42;100594.44;;;11.08;100.00
50103;BME280;35993;52.604;10.078;2023-04-29T01:17:17;100598.81;;;11.09;100.00
50103;BME280;35993;52.604;10.078;2023-04-29T01:19:51;100600.03;;;11.13;100.00
50103;BME280;35993;52.604;10.078;2023-04-29T01:22:20;100599.72;;;11.03;100.00
50103;BME280;35993;52.604;10.078;2023-04-29T01:24:47;100598.28;;;11.01;100.00
50103;BME280;35993;52.604;10.078;2023-04-29T01:27:27;100608.16;;;10.95;100.00
50103;BME280;35993;52.604;10.078;2023-04-29T01:35:51;100606.97;;;10.84;100.00
50103;BME280;35993;52.604;10.078;2023-04-29T01:38:43;100614.06;;;10.85;100.00
50103;BME280;35993;52.604;10.078;2023-04-29T01:41:13;100612.16;;;10.92;100.00
50103;BME280;35993;52.604;10.078;2023-04-29T01:43:41;100619.50;;;10.85;100.00
50103;BME280;35993;52.604;10.078;2023-04-29T01:46:16;100618.13;;;10.76;100.00
50103;BME280;35993;52.604;10.078;2023-04-29T01:48:45;100626.44;;;10.81;100.00
50103;BME280;35993;52.604;10.078;2023-04-29T01:51:11;100626.25;;;10.76;100.00
50103;BME280;35993;52.604;10.078;2023-04-29T01:53:37;100634.84;;;10.73;100.00
50103;BME280;35993;52.604;10.078;2023-04-29T01:56:06;100637.56;;;10.73;100.00
50103;BME280;35993;52.604;10.078;2023-04-29T01:58:55;100643.44;;;10.70;100.00
50103;BME280;35993;52.604;10.078;2023-04-29T02:01:35;100641.59;;;10.63;100.00
50103;BME280;35993;52.604;10.078;2023-04-29T02:04:02;100642.63;;;10.62;100.00
50103;BME280;35993;52.604;10.078;2023-04-29T02:06:28;100639.75;;;10.57;100.00
50103;BME280;35993;52.604;10.078;2023-04-29T02:08:58;100649.56;;;10.58;100.00
50103;BME280;35993;52.604;10.078;2023-04-29T02:11:24;100658.34;;;10.60;100.00
50103;BME280;35993;52.604;10.078;2023-04-29T02:13:52;100664.41;;;10.56;100.00
50103;BME280;35993;52.604;10.078;2023-04-29T02:16:19;100671.72;;;10.55;100.00
50103;BME280;35993;52.604;10.078;2023-04-29T02:18:55;100669.25;;;10.47;100.00
50103;BME280;35993;52.604;10.078;2023-04-29T02:21:21;100677.16;;;10.48;100.00
50103;BME280;35993;52.604;10.078;2023-04-29T02:23:46;100678.66;;;10.44;100.00
50103;BME280;35993;52.604;10.078;2023-04-29T02:26:12;100690.75;;;10.48;100.00
50103;BME280;35993;52.604;10.078;2023-04-29T02:28:39;100686.97;;;10.49;100.00
50103;BME280;35993;52.604;10.078;2023-04-29T02:31:05;100687.19;;;10.48;100.00
50103;BME280;35993;52.604;10.078;2023-04-29T02:33:31;100688.53;;;10.32;100.00
50103;BME280;35993;52.604;10.078;2023-04-29T02:35:57;100686.66;;;10.19;100.00
50103;BME280;35993;52.604;10.078;2023-04-29T02:38:24;100688.16;;;10.15;100.00
50103;BME280;35993;52.604;10.078;2023-04-29T02:40:49;100696.09;;;10.10;100.00
50103;BME280;35993;52.604;10.078;2023-04-29T02:43:15;100696.31;;;10.08;100.00
50103;BME280;35993;52.604;10.078;2023-04-29T02:45:43;100705.09;;;10.10;100.00
50103;BME280;35993;52.604;10.078;2023-04-29T02:48:09;100705.09;;;10.04;100.00
50103;BME280;35993;52.604;10.078;2023-04-29T02:50:35;100705.09;;;10.04;100.00
50103;BME280;35993;52.604;10.078;2023-04-29T02:53:01;100708.66;;;10.04;100.00
50103;BME280;35993;52.604;10.078;2023-04-29T02:55:26;100718.91;;;9.95;100.00
50103;BME280;35993;52.604;10.078;2023-04-29T02:57:54;100720.16;;;9.93;100.00
50103;BME280;35993;52.604;10.078;2023-04-29T03:00:19;100711.44;;;9.77;100.00
50103;BME280;35993;52.604;10.078;2023-04-29T03:02:46;100724.56;;;9.80;100.00
50103;BME280;35993;52.604;10.078;2023-04-29T03:05:11;100730.41;;;9.84;100.00
50103;BME280;35993;52.604;10.078;2023-04-29T03:07:37;100730.59;;;9.89;100.00
50103;BME280;35993;52.604;10.078;2023-04-29T03:10:03;100729.97;;;9.80;100.00
50103;BME280;35993;52.604;10.078;2023-04-29T03:12:29;100727.25;;;9.87;100.00
50103;BME280;35993;52.604;10.078;2023-04-29T03:14:54;100734.53;;;9.93;100.00
50103;BME280;35993;52.604;10.078;2023-04-29T03:17:21;100736.00;;;9.89;100.00
50103;BME280;35993;52.604;10.078;2023-04-29T03:19:46;100737.91;;;9.89;100.00
50103;BME280;35993;52.604;10.078;2023-04-29T03:22:12;100748.75;;;9.89;100.00
50103;BME280;35993;52.604;10.078;2023-04-29T03:24:41;100741.88;;;9.86;100.00
50103;BME280;35993;52.604;10.078;2023-04-29T03:27:07;100747.50;;;9.91;100.00
50103;BME280;35993;52.604;10.078;2023-04-29T03:29:32;100744.56;;;9.79;100.00
50103;BME280;35993;52.604;10.078;2023-04-29T03:31:58;100747.47;;;9.84;100.00
50103;BME280;35993;52.604;10.078;2023-04-29T03:34:24;100745.19;;;9.95;100.00
50103;BME280;35993;52.604;10.078;2023-04-29T03:37:04;100757.69;;;9.96;100.00
50103;BME280;35993;52.604;10.078;2023-04-29T03:39:30;100757.06;;;9.87;100.00
50103;BME280;35993;52.604;10.078;2023-04-29T03:41:57;100759.59;;;9.75;100.00
50103;BME280;35993;52.604;10.078;2023-04-29T03:44:24;100759.41;;;9.70;100.00
50103;BME280;35993;52.604;10.078;2023-04-29T03:46:50;100763.75;;;9.84;100.00
50103;BME280;35993;52.604;10.078;2023-04-29T03:49:16;100774.19;;;9.94;100.00
50103;BME280;35993;52.604;10.078;2023-04-29T03:51:42;100782.53;;;9.86;100.00
50103;BME280;35993;52.604;10.078;2023-04-29T03:54:13;100775.44;;;9.92;100.00
50103;BME280;35993;52.604;10.078;2023-04-29T03:56:38;100769.38;;;9.83;100.00
50103;BME280;35993;52.604;10.078;2023-04-29T03:59:05;100776.06;;;9.80;100.00
50103;BME280;35993;52.604;10.078;2023-04-29T04:01:31;100779.19;;;9.84;100.00
50103;BME280;35993;52.604;10.078;2023-04-29T04:03:56;100777.97;;;9.80;100.00
50103;BME280;35993;52.604;10.078;2023-04-29T04:06:22;100781.28;;;9.82;100.00
50103;BME280;35993;52.604;10.078;2023-04-29T04:08:50;100789.22;;;9.77;100.00
50103;BME280;35993;52.604;10.078;2023-04-29T04:11:23;100787.34;;;9.71;100.00
50103;BME280;35993;52.604;10.078;2023-04-29T04:13:55;100803.41;;;9.65;100.00
50103;BME280;35993;52.604;10.078;2023-04-29T04:16:20;100804.44;;;9.58;100.00
50103;BME280;35993;52.604;10.078;2023-04-29T04:18:46;100803.81;;;9.69;100.00
50103;BME280;35993;52.604;10.078;2023-04-29T04:21:12;100809.88;;;9.64;100.00
50103;BME280;35993;52.604;10.078;2023-04-29T04:23:40;100818.00;;;9.71;100.00
50103;BME280;35993;52.604;10.078;2023-04-29T04:26:08;100824.25;;;9.78;100.00
50103;BME280;35993;52.604;10.078;2023-04-29T04:28:52;100815.72;;;9.68;100.00
50103;BME280;35993;52.604;10.078;2023-04-29T04:31:28;100834.06;;;9.59;100.00
50103;BME280;35993;52.604;10.078;2023-04-29T04:33:54;100837.38;;;9.61;100.00
50103;BME280;35993;52.604;10.078;2023-04-29T04:36:21;100838.88;;;9.71;100.00
50103;BME280;35993;52.604;10.078;2023-04-29T04:38:47;100848.25;;;9.68;100.00
50103;BME280;35993;52.604;10.078;2023-04-29T04:41:13;100849.25;;;9.54;100.00
50103;BME280;35993;52.604;10.078;2023-04-29T04:43:41;100852.59;;;9.56;100.00
50103;BME280;35993;52.604;10.078;2023-04-29T04:46:14;100864.09;;;9.64;100.00
50103;BME280;35993;52.604;10.078;2023-04-29T04:48:51;100860.53;;;9.57;100.00
50103;BME280;35993;52.604;10.078;2023-04-29T04:51:18;100857.16;;;9.42;100.00
50103;BME280;35993;52.604;10.078;2023-04-29T04:53:43;100862.59;;;9.35;100.00
50103;BME280;35993;52.604;10.078;2023-04-29T04:56:17;100869.47;;;9.38;100.00
50103;BME280;35993;52.604;10.078;2023-04-29T04:58:42;100871.34;;;9.44;100.00
50103;BME280;35993;52.604;10.078;2023-04-29T05:01:08;100876.16;;;9.55;100.00
50103;BME280;35993;52.604;10.078;2023-04-29T05:03:34;100879.28;;;9.59;100.00
50103;BME280;35993;52.604;10.078;2023-04-29T05:06:00;100883.06;;;9.64;100.00
50103;BME280;35993;52.604;10.078;2023-04-29T05:08:26;100879.72;;;9.62;100.00
50103;BME280;35993;52.604;10.078;2023-04-29T05:10:54;100887.41;;;9.52;100.00
50103;BME280;35993;52.604;10.078;2023-04-29T05:13:20;100886.16;;;9.55;100.00
50103;BME280;35993;52.604;10.078;2023-04-29T05:15:46;100886.75;;;9.43;100.00
50103;BME280;35993;52.604;10.078;2023-04-29T05:18:15;100888.44;;;9.44;100.00
50103;BME280;35993;52.604;10.078;2023-04-29T05:20:42;100895.97;;;9.49;100.00
50103;BME280;35993;52.604;10.078;2023-04-29T05:23:07;100898.47;;;9.50;100.00
50103;BME280;35993;52.604;10.078;2023-04-29T05:25:38;100898.63;;;9.35;100.00
50103;BME280;35993;52.604;10.078;2023-04-29T05:28:04;100901.78;;;9.46;100.00
50103;BME280;35993;52.604;10.078;2023-04-29T05:30:33;100904.06;;;9.42;100.00
50103;BME280;35993;52.604;10.078;2023-04-29T05:32:58;100909.31;;;9.50;100.00
50103;BME280;35993;52.604;10.078;2023-04-29T05:35:24;100907.25;;;9.59;100.00
50103;BME280;35993;52.604;10.078;2023-04-29T05:37:50;100919.34;;;9.63;100.00
50103;BME280;35993;52.604;10.078;2023-04-29T05:40:24;100914.13;;;9.62;100.00
50103;BME280;35993;52.604;10.078;2023-04-29T05:42:54;100915.56;;;9.58;100.00
50103;BME280;35993;52.604;10.078;2023-04-29T05:45:20;100919.94;;;9.52;100.00
50103;BME280;35993;52.604;10.078;2023-04-29T05:47:48;100928.50;;;9.56;100.00
50103;BME280;35993;52.604;10.078;2023-04-29T05:50:13;100933.91;;;9.56;100.00
50103;BME280;35993;52.604;10.078;2023-04-29T05:52:39;100941.38;;;9.47;100.00
50103;BME280;35993;52.604;10.078;2023-04-29T05:55:05;100944.56;;;9.64;100.00
50103;BME280;35993;52.604;10.078;2023-04-29T05:57:30;100953.53;;;9.64;100.00
50103;BME280;35993;52.604;10.078;2023-04-29T05:59:56;100955.00;;;9.74;100.00
50103;BME280;35993;52.604;10.078;2023-04-29T06:02:24;100959.59;;;9.73;100.00
50103;BME280;35993;52.604;10.078;2023-04-29T06:04:50;100956.03;;;9.66;100.00
50103;BME280;35993;52.604;10.078;2023-04-29T06:07:45;100969.16;;;9.56;100.00
50103;BME280;35993;52.604;10.078;2023-04-29T06:10:30;100971.84;;;9.56;100.00
50103;BME280;35993;52.604;10.078;2023-04-29T06:12:56;100980.38;;;9.52;100.00
50103;BME280;35993;52.604;10.078;2023-04-29T06:15:22;100990.19;;;9.60;100.00
50103;BME280;35993;52.604;10.078;2023-04-29T06:17:47;100992.91;;;9.60;100.00
50103;BME280;35993;52.604;10.078;2023-04-29T06:20:13;100996.09;;;9.71;100.00
50103;BME280;35993;52.604;10.078;2023-04-29T06:22:38;101002.78;;;9.75;100.00
50103;BME280;35993;52.604;10.078;2023-04-29T06:25:04;101004.25;;;9.77;100.00
50103;BME280;35993;52.604;10.078;2023-04-29T06:27:43;101008.84;;;9.83;100.00
50103;BME280;35993;52.604;10.078;2023-04-29T06:30:09;101009.91;;;9.96;100.00
50103;BME280;35993;52.604;10.078;2023-04-29T06:32:38;101012.44;;;10.04;100.00
50103;BME280;35993;52.604;10.078;2023-04-29T06:35:04;101014.50;;;9.89;100.00
50103;BME280;35993;52.604;10.078;2023-04-29T06:37:49;101011.59;;;10.04;100.00
50103;BME280;35993;52.604;10.078;2023-04-29T06:40:47;101017.03;;;10.10;100.00
50103;BME280;35993;52.604;10.078;2023-04-29T06:43:31;101012.25;;;10.26;100.00
50103;BME280;35993;52.604;10.078;2023-04-29T06:45:59;101015.56;;;10.28;100.00
50103;BME280;35993;52.604;10.078;2023-04-29T06:48:31;101019.53;;;10.25;100.00
50103;BME280;35993;52.604;10.078;2023-04-29T06:50:57;101021.84;;;10.35;100.00
50103;BME280;35993;52.604;10.078;2023-04-29T06:53:23;101027.91;;;10.24;100.00
50103;BME280;35993;52.604;10.078;2023-04-29T06:55:49;101040.22;;;10.33;100.00
50103;BME280;35993;52.604;10.078;2023-04-29T06:58:16;101047.94;;;10.23;100.00
50103;BME280;35993;52.604;10.078;2023-04-29T07:00:45;101054.16;;;10.03;100.00
50103;BME280;35993;52.604;10.078;2023-04-29T07:03:12;101066.28;;;10.14;100.00
50103;BME280;35993;52.604;10.078;2023-04-29T07:05:37;101066.53;;;10.32;100.00
50103;BME280;35993;52.604;10.078;2023-04-29T07:08:05;101063.03;;;10.39;100.00
50103;BME280;35993;52.604;10.078;2023-04-29T07:10:31;101065.13;;;10.50;100.00
50103;BME280;35993;52.604;10.078;2023-04-29T07:12:56;101070.31;;;10.65;100.00
50103;BME280;35993;52.604;10.078;2023-04-29T07:15:23;101077.03;;;10.69;100.00
50103;BME280;35993;52.604;10.078;2023-04-29T07:17:49;101078.47;;;10.52;100.00
50103;BME280;35993;52.604;10.078;2023-04-29T07:20:15;101082.22;;;10.51;100.00
50103;BME280;35993;52.604;10.078;2023-04-29T07:22:40;101085.38;;;10.68;100.00
50103;BME280;35993;52.604;10.078;2023-04-29T07:25:07;101091.59;;;11.15;100.00
50103;BME280;35993;52.604;10.078;2023-04-29T07:27:33;101096.38;;;11.40;100.00
50103;BME280;35993;52.604;10.078;2023-04-29T07:30:00;101100.16;;;11.32;100.00
50103;BME280;35993;52.604;10.078;2023-04-29T07:32:26;101107.41;;;11.52;100.00
50103;BME280;35993;52.604;10.078;2023-04-29T07:34:52;101108.81;;;11.74;100.00
50103;BME280;35993;52.604;10.078;2023-04-29T07:37:19;101113.47;;;11.60;100.00
50103;BME280;35993;52.604;10.078;2023-04-29T07:39:45;101120.38;;;11.56;100.00
50103;BME280;35993;52.604;10.078;2023-04-29T07:42:11;101124.59;;;11.52;100.00
50103;BME280;35993;52.604;10.078;2023-04-29T07:44:37;101119.34;;;11.57;100.00
50103;BME280;35993;52.604;10.078;2023-04-29T07:47:02;101124.16;;;11.55;100.00
50103;BME280;35993;52.604;10.078;2023-04-29T07:49:28;101121.22;;;11.57;100.00
50103;BME280;35993;52.604;10.078;2023-04-29T07:51:54;101132.50;;;11.60;100.00
50103;BME280;35993;52.604;10.078;2023-04-29T07:54:19;101129.59;;;11.55;100.00
50103;BME280;35993;52.604;10.078;2023-04-29T07:56:48;101131.63;;;11.73;100.00
50103;BME280;35993;52.604;10.078;2023-04-29T07:59:14;101139.34;;;11.76;100.00
50103;BME280;35993;52.604;10.078;2023-04-29T08:01:40;101133.91;;;11.83;100.00
50103;BME280;35993;52.604;10.078;2023-04-29T08:04:06;101144.28;;;11.93;100.00
50103;BME280;35993;52.604;10.078;2023-04-29T08:06:38;101148.09;;;11.99;100.00
50103;BME280;35993;52.604;10.078;2023-04-29T08:09:08;101152.72;;;11.85;100.00
50103;BME280;35993;52.604;10.078;2023-04-29T08:11:34;101148.69;;;11.94;100.00
50103;BME280;35993;52.604;10.078;2023-04-29T08:13:59;101152.00;;;12.16;100.00
50103;BME280;35993;52.604;10.078;2023-04-29T08:16:25;101154.47;;;12.56;99.91
50103;BME280;35993;52.604;10.078;2023-04-29T08:18:51;101150.97;;;12.49;97.30
50103;BME280;35993;52.604;10.078;2023-04-29T08:21:18;101164.66;;;12.36;96.61
50103;BME280;35993;52.604;10.078;2023-04-29T08:23:43;101168.50;;;12.60;97.78
50103;BME280;35993;52.604;10.078;2023-04-29T08:26:10;101171.69;;;12.50;94.93
50103;BME280;35993;52.604;10.078;2023-04-29T08:28:37;101180.56;;;12.71;93.58
50103;BME280;35993;52.604;10.078;2023-04-29T08:31:03;101176.25;;;12.88;92.36
50103;BME280;35993;52.604;10.078;2023-04-29T08:33:33;101176.72;;;12.85;91.89
50103;BME280;35993;52.604;10.078;2023-04-29T08:35:59;101177.09;;;13.14;92.47
50103;BME280;35993;52.604;10.078;2023-04-29T08:38:25;101180.84;;;13.20;91.82
50103;BME280;35993;52.604;10.078;2023-04-29T08:40:50;101181.97;;;13.12;89.72
50103;BME280;35993;52.604;10.078;2023-04-29T08:43:16;101176.91;;;12.90;88.03
50103;BME280;35993;52.604;10.078;2023-04-29T08:45:42;101191.41;;;13.09;88.83
50103;BME280;35993;52.604;10.078;2023-04-29T08:48:08;101189.47;;;13.17;88.36
50103;BME280;35993;52.604;10.078;2023-04-29T08:50:39;101196.66;;;13.36;88.44
50103;BME280;35993;52.604;10.078;2023-04-29T08:53:09;101192.53;;;13.52;88.21
50103;BME280;35993;52.604;10.078;2023-04-29T08:55:46;101195.97;;;13.41;86.46
50103;BME280;35993;52.604;10.078;2023-04-29T08:58:13;101194.94;;;13.42;86.16
50103;BME280;35993;52.604;10.078;2023-04-29T09:00:41;101193.72;;;13.31;84.50
50103;BME280;35993;52.604;10.078;2023-04-29T09:05:55;101201.06;;;13.37;84.10
50103;BME280;35993;52.604;10.078;2023-04-29T09:08:24;101198.53;;;13.61;84.25
50103;BME280;35993;52.604;10.078;2023-04-29T09:10:50;101189.75;;;13.77;82.36
50103;BME280;35993;52.604;10.078;2023-04-29T09:13:28;101198.75;;;13.78;79.22
50103;BME280;35993;52.604;10.078;2023-04-29T09:15:54;101200.06;;;13.75;79.74
50103;BME280;35993;52.604;10.078;2023-04-29T09:18:45;101194.94;;;13.60;79.09
50103;BME280;35993;52.604;10.078;2023-04-29T09:21:19;101205.19;;;13.47;79.65
50103;BME280;35993;52.604;10.078;2023-04-29T09:23:46;101218.69;;;13.60;80.24
50103;BME280;35993;52.604;10.078;2023-04-29T09:26:13;101215.34;;;13.33;80.14
50103;BME280;35993;52.604;10.078;2023-04-29T09:28:40;101217.44;;;13.31;80.65
50103;BME280;35993;52.604;10.078;2023-04-29T09:31:10;101227.19;;;13.20;81.35
50103;BME280;35993;52.604;10.078;2023-04-29T09:33:52;101221.28;;;13.23;81.98
50103;BME280;35993;52.604;10.078;2023-04-29T09:39:04;101236.50;;;13.05;79.60
50103;BME280;35993;52.604;10.078;2023-04-29T09:44:17;101226.94;;;13.53;79.32
50103;BME280;35993;52.604;10.078;2023-04-29T09:46:43;101223.50;;;14.02;78.44
50103;BME280;35993;52.604;10.078;2023-04-29T09:49:23;101221.94;;;14.43;76.92
50103;BME280;35993;52.604;10.078;2023-04-29T09:51:58;101224.63;;;14.31;76.76
50103;BME280;35993;52.604;10.078;2023-04-29T09:54:28;101224.31;;;14.21;76.86
50103;BME280;35993;52.604;10.078;2023-04-29T09:56:56;101228.63;;;13.73;77.36
50103;BME280;35993;52.604;10.078;2023-04-29T09:59:23;101236.56;;;13.74;78.11
50103;BME280;35993;52.604;10.078;2023-04-29T10:01:51;101233.91;;;13.68;76.75
50103;BME280;35993;52.604;10.078;2023-04-29T10:04:18;101235.13;;;13.53;77.09
50103;BME280;35993;52.604;10.078;2023-04-29T10:06:45;101239.09;;;13.25;78.68
50103;BME280;35993;52.604;10.078;2023-04-29T10:09:14;101242.34;;;13.85;78.89
50103;BME280;35993;52.604;10.078;2023-04-29T10:11:44;101235.31;;;14.33;76.83
50103;BME280;35993;52.604;10.078;2023-04-29T10:14:14;101242.00;;;14.18;76.97
50103;BME280;35993;52.604;10.078;2023-04-29T10:16:48;101239.47;;;14.17;77.31
50103;BME280;35993;52.604;10.078;2023-04-29T10:19:24;101233.41;;;13.96;75.25
50103;BME280;35993;52.604;10.078;2023-04-29T10:21:53;101231.66;;;13.65;74.11
50103;BME280;35993;52.604;10.078;2023-04-29T10:24:20;101244.13;;;14.16;72.93
50103;BME280;35993;52.604;10.078;2023-04-29T10:26:49;101239.63;;;14.22;73.92
50103;BME280;35993;52.604;10.078;2023-04-29T10:29:16;101241.53;;;14.40;72.86
50103;BME280;35993;52.604;10.078;2023-04-29T10:31:42;101246.91;;;14.28;73.28
50103;BME280;35993;52.604;10.078;2023-04-29T10:34:10;101249.56;;;14.16;73.49
50103;BME280;35993;52.604;10.078;2023-04-29T10:36:37;101249.78;;;13.77;72.48
50103;BME280;35993;52.604;10.078;2023-04-29T10:39:03;101257.50;;;13.62;73.29
50103;BME280;35993;52.604;10.078;2023-04-29T10:41:36;101255.84;;;13.80;73.36
50103;BME280;35993;52.604;10.078;2023-04-29T10:44:02;101250.25;;;13.93;73.65
50103;BME280;35993;52.604;10.078;2023-04-29T10:46:28;101256.63;;;14.05;73.23
50103;BME280;35993;52.604;10.078;2023-04-29T10:49:01;101257.38;;;14.31;72.92
50103;BME280;35993;52.604;10.078;2023-04-29T10:56:40;101257.53;;;14.36;72.54
50103;BME280;35993;52.604;10.078;2023-04-29T10:59:10;101248.28;;;14.37;72.22
50103;BME280;35993;52.604;10.078;2023-04-29T11:01:45;101249.44;;;14.30;71.60
50103;BME280;35993;52.604;10.078;2023-04-29T11:04:11;101242.06;;;14.12;69.36
50103;BME280;35993;52.604;10.078;2023-04-29T11:06:39;101245.03;;;14.10;69.44
50103;BME280;35993;52.604;10.078;2023-04-29T11:11:45;101252.03;;;14.55;69.42
50103;BME280;35993;52.604;10.078;2023-04-29T11:14:12;101246.56;;;14.55;68.89
50103;BME280;35993;52.604;10.078;2023-04-29T11:16:46;101246.66;;;14.48;69.06
50103;BME280;35993;52.604;10.078;2023-04-29T11:19:14;101256.50;;;14.68;68.76
50103;BME280;35993;52.604;10.078;2023-04-29T11:21:41;101246.66;;;14.48;67.52
50103;BME280;35993;52.604;10.078;2023-04-29T11:24:08;101246.44;;;14.50;67.88
50103;BME280;35993;52.604;10.078;2023-04-29T11:26:34;101250.06;;;14.62;67.43
50103;BME280;35993;52.604;10.078;2023-04-29T11:29:00;101247.41;;;14.55;67.02
50103;BME280;35993;52.604;10.078;2023-04-29T11:31:30;101239.44;;;14.54;65.76
50103;BME280;35993;52.604;10.078;2023-04-29T11:33:56;101246.06;;;15.07;65.61
50103;BME280;35993;52.604;10.078;2023-04-29T11:36:22;101243.97;;;15.21;65.54
50103;BME280;35993;52.604;10.078;2023-04-29T11:38:47;101248.78;;;14.95;65.42
50103;BME280;35993;52.604;10.078;2023-04-29T11:41:13;101245.69;;;14.91;65.90
50103;BME280;35993;52.604;10.078;2023-04-29T11:43:40;101253.75;;;14.86;66.46
50103;BME280;35993;52.604;10.078;2023-04-29T11:46:13;101255.16;;;14.77;66.56
50103;BME280;35993;52.604;10.078;2023-04-29T11:48:46;101254.28;;;14.77;67.06
50103;BME280;35993;52.604;10.078;2023-04-29T11:51:14;101256.34;;;14.63;66.59
50103;BME280;35993;52.604;10.078;2023-04-29T11:53:40;101258.56;;;14.54;66.44
50103;BME280;35993;52.604;10.078;2023-04-29T11:56:07;101270.72;;;14.58;65.97
50103;BME280;35993;52.604;10.078;2023-04-29T11:58:33;101258.13;;;14.57;65.01
50103;BME280;35993;52.604;10.078;2023-04-29T12:00:59;101270.38;;;14.85;64.65
50103;BME280;35993;52.604;10.078;2023-04-29T12:03:25;101266.22;;;15.24;63.59
50103;BME280;35993;52.604;10.078;2023-04-29T12:05:54;101258.63;;;15.38;63.13
50103;BME280;35993;52.604;10.078;2023-04-29T12:08:25;101252.34;;;15.73;62.59
50103;BME280;35993;52.604;10.078;2023-04-29T12:10:53;101262.81;;;15.65;63.16
50103;BME280;35993;52.604;10.078;2023-04-29T12:13:19;101270.66;;;15.61;62.78
50103;BME280;35993;52.604;10.078;2023-04-29T12:15:48;101264.09;;;15.38;61.71
50103;BME280;35993;52.604;10.078;2023-04-29T12:18:16;101263.94;;;15.21;62.10
50103;BME280;35993;52.604;10.078;2023-04-29T12:20:42;101265.97;;;15.26;62.19
50103;BME280;35993;52.604;10.078;2023-04-29T12:23:19;101267.78;;;15.44;62.63
50103;BME280;35993;52.604;10.078;2023-04-29T12:25:51;101274.13;;;15.68;62.14
50103;BME280;35993;52.604;10.078;2023-04-29T12:28:18;101263.91;;;15.87;61.26
50103;BME280;35993;52.604;10.078;2023-04-29T12:30:48;101266.28;;;15.84;61.28
50103;BME280;35993;52.604;10.078;2023-04-29T12:33:22;101271.88;;;15.65;61.34
50103;BME280;35993;52.604;10.078;2023-04-29T12:35:49;101268.03;;;15.43;61.38
50103;BME280;35993;52.604;10.078;2023-04-29T12:38:40;101267.78;;;15.32;62.58
50103;BME280;35993;52.604;10.078;2023-04-29T12:41:05;101270.28;;;15.34;61.42
50103;BME280;35993;52.604;10.078;2023-04-29T12:43:32;101277.78;;;15.38;62.07
50103;BME280;35993;52.604;10.078;2023-04-29T12:46:02;101278.84;;;15.37;61.36
50103;BME280;35993;52.604;10.078;2023-04-29T12:48:29;101281.53;;;15.14;61.30
50103;BME280;35993;52.604;10.078;2023-04-29T12:50:56;101283.94;;;15.22;61.79
50103;BME280;35993;52.604;10.078;2023-04-29T12:53:25;101291.16;;;15.70;61.86
50103;BME280;35993;52.604;10.078;2023-04-29T12:55:51;101277.44;;;15.59;61.02
50103;BME280;35993;52.604;10.078;2023-04-29T12:58:17;101286.69;;;15.46;61.67
50103;BME280;35993;52.604;10.078;2023-04-29T13:00:42;101290.47;;;15.33;62.57
50103;BME280;35993;52.604;10.078;2023-04-29T13:03:08;101291.47;;;15.38;62.43